Himawari 2 — JG5636 — position and weather

sailwx.info

Track history (hours):
 
Tides and Currents Weather Stations Pressure Air Temp Water Temp Dewpoint Dewpoint Depression Visibility Wind Speed Wind Dir Waves Ship Positions

Himawari 2

Last reported at 2017-Mar-28 15:33 UTC. Time now 2017-Mar-28 19:47 UTC.
Position N 35°04' E 139°44'.

Length 161 m; draft 6.5 m.

Type: Cargo ship. MMSI: 431100957.

Date/timePositionNaut miles runAvg speedWind from/ knotsBaromVisibWave heightAir tempDewpointWater temp
2017-Mar-28 15:33N 35°04' E 139°44'1514.6
2017-Mar-28 14:33N 35°18' E 139°44'1413.8
2017-Mar-28 13:34N 35°31' E 139°51'6 6.2
2017-Mar-28 12:33N 35°36' E 139°48'0 0.0
2017-Mar-28 11:33N 35°36' E 139°48'0 0.0
2017-Mar-28 10:33N 35°36' E 139°48'0 0.0
2017-Mar-28 09:33N 35°36' E 139°48'0 0.0
2017-Mar-28 08:33N 35°36' E 139°48'0 0.0
2017-Mar-28 07:33N 35°36' E 139°48'0 0.0
2017-Mar-28 06:33N 35°36' E 139°48'0 0.0
2017-Mar-28 05:33N 35°36' E 139°48'0 0.0
2017-Mar-28 04:33N 35°36' E 139°48'0 0.0
2017-Mar-28 03:33N 35°36' E 139°48'0 0.0
2017-Mar-28 02:33N 35°36' E 139°48'0 0.0
2017-Mar-28 01:33N 35°36' E 139°48'0 0.0
2017-Mar-28 00:33N 35°36' E 139°48'0 0.2
2017-Mar-27 23:33N 35°36' E 139°48'1110.9
2017-Mar-27 22:33N 35°26' E 139°48'1111.3
2017-Mar-27 21:33N 35°14' E 139°47'1615.8
2017-Mar-27 20:33N 35°00' E 139°38'23818.2
2017-Mar-27 07:26N 33°57' E 134°59'2023.0
2017-Mar-27 06:33N 34°17' E 134°58'2322.8
2017-Mar-27 05:33N 34°34' E 135°17'8 7.5
2017-Mar-27 04:28N 34°40' E 135°24'0 0.0
2017-Mar-27 03:28N 34°40' E 135°24'0 0.0
2017-Mar-27 02:04N 34°40' E 135°24'0 0.0
2017-Mar-27 01:22N 34°40' E 135°24'0 0.0
2017-Mar-27 00:28N 34°40' E 135°24'0 0.0
2017-Mar-26 23:28N 34°40' E 135°24'0 0.0
2017-Mar-26 22:22N 34°40' E 135°24'0 0.0
2017-Mar-26 21:28N 34°40' E 135°24'0 0.0
2017-Mar-26 20:28N 34°40' E 135°24'0 0.0
2017-Mar-26 19:28N 34°40' E 135°24'0 0.0
2017-Mar-26 18:28N 34°40' E 135°24'0 0.0
2017-Mar-26 17:28N 34°40' E 135°24'0 0.0
2017-Mar-26 16:28N 34°40' E 135°24'0 0.0
2017-Mar-26 15:28N 34°40' E 135°24'0 0.0
2017-Mar-26 14:28N 34°40' E 135°24'0 0.0
2017-Mar-26 13:28N 34°40' E 135°24'0 0.0
2017-Mar-26 12:28N 34°40' E 135°24'0 0.0
2017-Mar-26 11:28N 34°40' E 135°24'0 0.0
2017-Mar-26 10:28N 34°40' E 135°24'0 0.0
2017-Mar-26 09:28N 34°40' E 135°24'0 0.0
2017-Mar-26 08:28N 34°40' E 135°24'0 0.0
2017-Mar-26 07:28N 34°40' E 135°24'0 0.0
2017-Mar-26 06:28N 34°40' E 135°24'0 0.0
2017-Mar-26 05:28N 34°40' E 135°24'0 0.0
2017-Mar-26 04:28N 34°40' E 135°24'0 0.0
2017-Mar-26 03:28N 34°40' E 135°24'0 0.0
2017-Mar-26 02:04N 34°40' E 135°24'0 0.6
2017-Mar-26 01:33N 34°39' E 135°24'1515.3
2017-Mar-26 00:33N 34°29' E 135°11'1919.0
2017-Mar-25 23:34N 34°12' E 134°59'23416.6
2017-Mar-25 09:29N 35°02' E 139°37'1516.1
2017-Mar-25 08:33N 35°15' E 139°46'1211.7
2017-Mar-25 07:34N 35°27' E 139°46'10 9.5
2017-Mar-25 06:31N 35°36' E 139°48'0 0.0
2017-Mar-25 05:31N 35°36' E 139°48'0 0.0
2017-Mar-25 04:31N 35°36' E 139°48'0 0.0
2017-Mar-25 03:31N 35°36' E 139°48'0 0.0
2017-Mar-25 02:31N 35°36' E 139°48'0 0.3
2017-Mar-25 01:33N 35°36' E 139°48'1212.0
2017-Mar-25 00:33N 35°24' E 139°47'10 9.7
2017-Mar-24 23:34N 35°15' E 139°47'  
2017-Mar-21 15:33N 34°58' E 139°43'1717.3
2017-Mar-21 14:33N 35°15' E 139°46'1312.8
2017-Mar-21 13:33N 35°28' E 139°48'8 8.2
2017-Mar-21 12:33N 35°36' E 139°48'0 0.0
2017-Mar-21 11:32N 35°36' E 139°48'0 0.0
2017-Mar-21 10:32N 35°36' E 139°48'0 0.0
2017-Mar-21 09:33N 35°36' E 139°48'0 0.0
2017-Mar-21 08:32N 35°36' E 139°48'0 0.0
2017-Mar-21 07:32N 35°36' E 139°48'0 0.0
2017-Mar-21 06:33N 35°36' E 139°48'0 0.0
2017-Mar-21 05:32N 35°36' E 139°48'0 0.0
2017-Mar-21 04:32N 35°36' E 139°48'0 0.0
2017-Mar-21 03:32N 35°36' E 139°48'0 0.0
2017-Mar-21 02:32N 35°36' E 139°48'0 0.0
2017-Mar-21 01:32N 35°36' E 139°48'0 0.0
2017-Mar-21 00:32N 35°36' E 139°48'0 0.2
2017-Mar-20 23:33N 35°36' E 139°48'1111.3
2017-Mar-20 22:33N 35°25' E 139°47'1211.5
2017-Mar-20 21:33N 35°14' E 139°47'1414.5
2017-Mar-20 20:33N 35°01' E 139°39'23918.4
2017-Mar-20 07:33N 34°01' E 134°58'2323.1
2017-Mar-20 06:33N 34°24' E 135°02'2120.9
2017-Mar-20 05:33N 34°37' E 135°22'3 2.8
2017-Mar-20 04:29N 34°40' E 135°24'0 0.0
2017-Mar-20 03:29N 34°40' E 135°24'0 0.0
2017-Mar-20 02:05N 34°40' E 135°24'0 0.0
2017-Mar-20 01:29N 34°40' E 135°24'0 0.0
2017-Mar-20 00:17N 34°40' E 135°24'0 0.0
2017-Mar-19 23:23N 34°40' E 135°24'6 7.4
2017-Mar-19 22:33N 34°35' E 135°19'2322.1
2017-Mar-19 21:32N 34°18' E 135°00'2222.2
2017-Mar-19 20:33N 33°57' E 134°60'22820.3
2017-Mar-19 09:20N 34°55' E 139°27'1822.5
2017-Mar-19 08:33N 35°07' E 139°42'1312.9
2017-Mar-19 07:33N 35°20' E 139°43'1515.3
2017-Mar-19 06:33N 35°34' E 139°48'2 1.9
2017-Mar-19 05:32N 35°36' E 139°48'0 0.0
2017-Mar-19 04:32N 35°36' E 139°48'0 0.0
2017-Mar-19 03:32N 35°36' E 139°48'0 0.0
2017-Mar-19 02:32N 35°36' E 139°48'2 1.7
2017-Mar-19 01:34N 35°35' E 139°48'1313.3
2017-Mar-19 00:33N 35°22' E 139°45'1312.7
2017-Mar-18 23:34N 35°09' E 139°47'1815.3
2017-Mar-18 22:21N 34°54' E 139°60'2123.5
2017-Mar-18 21:28N 35°04' E 140°22'  
Track history (hours):
 
Tides and Currents Weather Stations Pressure Air Temp Water Temp Dewpoint Dewpoint Depression Visibility Wind Speed Wind Dir Waves Ship Positions

Himawari 2

Last reported at 2017-Mar-28 15:33 UTC. Time now 2017-Mar-28 19:47 UTC.
Position N 35°04' E 139°44'.

Length 161 m; draft 6.5 m.

Type: Cargo ship. MMSI: 431100957.

Date/timePositionNaut miles runAvg speedWind from/ knotsBaromVisibWave heightAir tempDewpointWater temp
2017-Mar-28 15:33N 35°04' E 139°44'1514.6
2017-Mar-28 14:33N 35°18' E 139°44'1413.8
2017-Mar-28 13:34N 35°31' E 139°51'6 6.2
2017-Mar-28 12:33N 35°36' E 139°48'0 0.0
2017-Mar-28 11:33N 35°36' E 139°48'0 0.0
2017-Mar-28 10:33N 35°36' E 139°48'0 0.0
2017-Mar-28 09:33N 35°36' E 139°48'0 0.0
2017-Mar-28 08:33N 35°36' E 139°48'0 0.0
2017-Mar-28 07:33N 35°36' E 139°48'0 0.0
2017-Mar-28 06:33N 35°36' E 139°48'0 0.0
2017-Mar-28 05:33N 35°36' E 139°48'0 0.0
2017-Mar-28 04:33N 35°36' E 139°48'0 0.0
2017-Mar-28 03:33N 35°36' E 139°48'0 0.0
2017-Mar-28 02:33N 35°36' E 139°48'0 0.0
2017-Mar-28 01:33N 35°36' E 139°48'0 0.0
2017-Mar-28 00:33N 35°36' E 139°48'0 0.2
2017-Mar-27 23:33N 35°36' E 139°48'1110.9
2017-Mar-27 22:33N 35°26' E 139°48'1111.3
2017-Mar-27 21:33N 35°14' E 139°47'1615.8
2017-Mar-27 20:33N 35°00' E 139°38'23818.2
2017-Mar-27 07:26N 33°57' E 134°59'2023.0
2017-Mar-27 06:33N 34°17' E 134°58'2322.8
2017-Mar-27 05:33N 34°34' E 135°17'8 7.5
2017-Mar-27 04:28N 34°40' E 135°24'0 0.0
2017-Mar-27 03:28N 34°40' E 135°24'0 0.0
2017-Mar-27 02:04N 34°40' E 135°24'0 0.0
2017-Mar-27 01:22N 34°40' E 135°24'0 0.0
2017-Mar-27 00:28N 34°40' E 135°24'0 0.0
2017-Mar-26 23:28N 34°40' E 135°24'0 0.0
2017-Mar-26 22:22N 34°40' E 135°24'0 0.0
2017-Mar-26 21:28N 34°40' E 135°24'0 0.0
2017-Mar-26 20:28N 34°40' E 135°24'0 0.0
2017-Mar-26 19:28N 34°40' E 135°24'0 0.0
2017-Mar-26 18:28N 34°40' E 135°24'0 0.0
2017-Mar-26 17:28N 34°40' E 135°24'0 0.0
2017-Mar-26 16:28N 34°40' E 135°24'0 0.0
2017-Mar-26 15:28N 34°40' E 135°24'0 0.0
2017-Mar-26 14:28N 34°40' E 135°24'0 0.0
2017-Mar-26 13:28N 34°40' E 135°24'0 0.0
2017-Mar-26 12:28N 34°40' E 135°24'0 0.0
2017-Mar-26 11:28N 34°40' E 135°24'0 0.0
2017-Mar-26 10:28N 34°40' E 135°24'0 0.0
2017-Mar-26 09:28N 34°40' E 135°24'0 0.0
2017-Mar-26 08:28N 34°40' E 135°24'0 0.0
2017-Mar-26 07:28N 34°40' E 135°24'0 0.0
2017-Mar-26 06:28N 34°40' E 135°24'0 0.0
2017-Mar-26 05:28N 34°40' E 135°24'0 0.0
2017-Mar-26 04:28N 34°40' E 135°24'0 0.0
2017-Mar-26 03:28N 34°40' E 135°24'0 0.0
2017-Mar-26 02:04N 34°40' E 135°24'0 0.6
2017-Mar-26 01:33N 34°39' E 135°24'1515.3
2017-Mar-26 00:33N 34°29' E 135°11'1919.0
2017-Mar-25 23:34N 34°12' E 134°59'23416.6
2017-Mar-25 09:29N 35°02' E 139°37'1516.1
2017-Mar-25 08:33N 35°15' E 139°46'1211.7
2017-Mar-25 07:34N 35°27' E 139°46'10 9.5
2017-Mar-25 06:31N 35°36' E 139°48'0 0.0
2017-Mar-25 05:31N 35°36' E 139°48'0 0.0
2017-Mar-25 04:31N 35°36' E 139°48'0 0.0
2017-Mar-25 03:31N 35°36' E 139°48'0 0.0
2017-Mar-25 02:31N 35°36' E 139°48'0 0.3
2017-Mar-25 01:33N 35°36' E 139°48'1212.0
2017-Mar-25 00:33N 35°24' E 139°47'10 9.7
2017-Mar-24 23:34N 35°15' E 139°47'  
2017-Mar-21 15:33N 34°58' E 139°43'1717.3
2017-Mar-21 14:33N 35°15' E 139°46'1312.8
2017-Mar-21 13:33N 35°28' E 139°48'8 8.2
2017-Mar-21 12:33N 35°36' E 139°48'0 0.0
2017-Mar-21 11:32N 35°36' E 139°48'0 0.0
2017-Mar-21 10:32N 35°36' E 139°48'0 0.0
2017-Mar-21 09:33N 35°36' E 139°48'0 0.0
2017-Mar-21 08:32N 35°36' E 139°48'0 0.0
2017-Mar-21 07:32N 35°36' E 139°48'0 0.0
2017-Mar-21 06:33N 35°36' E 139°48'0 0.0
2017-Mar-21 05:32N 35°36' E 139°48'0 0.0
2017-Mar-21 04:32N 35°36' E 139°48'0 0.0
2017-Mar-21 03:32N 35°36' E 139°48'0 0.0
2017-Mar-21 02:32N 35°36' E 139°48'0 0.0
2017-Mar-21 01:32N 35°36' E 139°48'0 0.0
2017-Mar-21 00:32N 35°36' E 139°48'0 0.2
2017-Mar-20 23:33N 35°36' E 139°48'1111.3
2017-Mar-20 22:33N 35°25' E 139°47'1211.5
2017-Mar-20 21:33N 35°14' E 139°47'1414.5
2017-Mar-20 20:33N 35°01' E 139°39'23918.4
2017-Mar-20 07:33N 34°01' E 134°58'2323.1
2017-Mar-20 06:33N 34°24' E 135°02'2120.9
2017-Mar-20 05:33N 34°37' E 135°22'3 2.8
2017-Mar-20 04:29N 34°40' E 135°24'0 0.0
2017-Mar-20 03:29N 34°40' E 135°24'0 0.0
2017-Mar-20 02:05N 34°40' E 135°24'0 0.0
2017-Mar-20 01:29N 34°40' E 135°24'0 0.0
2017-Mar-20 00:17N 34°40' E 135°24'0 0.0
2017-Mar-19 23:23N 34°40' E 135°24'6 7.4
2017-Mar-19 22:33N 34°35' E 135°19'2322.1
2017-Mar-19 21:32N 34°18' E 135°00'2222.2
2017-Mar-19 20:33N 33°57' E 134°60'22820.3
2017-Mar-19 09:20N 34°55' E 139°27'1822.5
2017-Mar-19 08:33N 35°07' E 139°42'1312.9
2017-Mar-19 07:33N 35°20' E 139°43'1515.3
2017-Mar-19 06:33N 35°34' E 139°48'2 1.9
2017-Mar-19 05:32N 35°36' E 139°48'0 0.0
2017-Mar-19 04:32N 35°36' E 139°48'0 0.0
2017-Mar-19 03:32N 35°36' E 139°48'0 0.0
2017-Mar-19 02:32N 35°36' E 139°48'2 1.7
2017-Mar-19 01:34N 35°35' E 139°48'1313.3
2017-Mar-19 00:33N 35°22' E 139°45'1312.7
2017-Mar-18 23:34N 35°09' E 139°47'1815.3
2017-Mar-18 22:21N 34°54' E 139°60'2123.5
2017-Mar-18 21:28N 35°04' E 140°22'  

Dump ship's entire track history